createdAt,value
2022-08-18T00:01:45.497Z,20.60
2022-08-18T00:04:35.306Z,20.66
2022-08-18T00:07:07.324Z,20.61
2022-08-18T00:09:38.955Z,20.50
2022-08-18T00:12:13.775Z,20.50
2022-08-18T00:14:43.644Z,20.54
2022-08-18T00:17:14.052Z,20.48
2022-08-18T00:19:47.793Z,20.49
2022-08-18T00:22:20.264Z,20.45
2022-08-18T00:24:52.630Z,20.39
2022-08-18T00:27:28.220Z,20.36
2022-08-18T00:29:59.955Z,20.35
2022-08-18T00:32:33.208Z,20.32
2022-08-18T00:35:09.772Z,20.30
2022-08-18T00:37:39.563Z,20.31
2022-08-18T00:40:12.738Z,20.29
2022-08-18T00:42:47.940Z,20.28
2022-08-18T00:45:22.773Z,20.25
2022-08-18T00:47:52.932Z,20.25
2022-08-18T00:50:27.944Z,20.24
2022-08-18T00:53:03.505Z,20.22
2022-08-18T00:55:33.901Z,20.17
2022-08-18T00:58:10.566Z,20.16
2022-08-18T01:00:40.401Z,20.14
2022-08-18T01:03:14.382Z,20.14
2022-08-18T01:05:49.189Z,20.12
2022-08-18T01:08:28.826Z,20.11
2022-08-18T01:11:02.422Z,20.01
2022-08-18T01:13:34.062Z,19.84
2022-08-18T01:16:24.067Z,19.80
2022-08-18T01:19:08.634Z,19.83
2022-08-18T01:21:53.118Z,19.84
2022-08-18T01:24:46.721Z,19.86
2022-08-18T01:27:18.530Z,19.85
2022-08-18T01:29:50.362Z,19.84
2022-08-18T01:32:23.629Z,19.86
2022-08-18T01:34:54.702Z,19.85
2022-08-18T01:37:25.773Z,19.84
2022-08-18T01:41:21.303Z,19.83
2022-08-18T01:42:46.162Z,19.84
2022-08-18T01:45:18.454Z,19.85
2022-08-18T01:47:50.299Z,19.85
2022-08-18T01:50:20.243Z,19.86
2022-08-18T01:52:53.143Z,19.89
2022-08-18T01:55:21.931Z,19.89
2022-08-18T01:57:51.790Z,19.85
2022-08-18T02:00:21.913Z,19.86
2022-08-18T02:03:01.968Z,19.87
2022-08-18T02:05:37.112Z,19.87
2022-08-18T02:08:08.034Z,19.87
2022-08-18T02:10:38.494Z,19.85
2022-08-18T02:13:08.393Z,19.84
2022-08-18T02:15:38.062Z,19.85
2022-08-18T02:18:37.172Z,19.84
2022-08-18T02:21:11.227Z,19.81
2022-08-18T02:23:44.945Z,19.77
2022-08-18T02:26:23.921Z,19.76
2022-08-18T02:28:54.074Z,19.75
2022-08-18T02:31:25.815Z,19.74
2022-08-18T02:33:56.794Z,19.74
2022-08-18T02:36:26.495Z,19.74
2022-08-18T02:38:59.957Z,19.72
2022-08-18T02:41:30.833Z,19.71
2022-08-18T02:44:00.870Z,19.68
2022-08-18T02:46:31.296Z,19.62
2022-08-18T02:49:01.846Z,19.55
2022-08-18T02:51:31.887Z,19.47
2022-08-18T02:54:01.730Z,19.43
2022-08-18T02:56:40.551Z,19.42
2022-08-18T02:59:14.770Z,19.40
2022-08-18T03:01:46.371Z,19.39
2022-08-18T03:04:19.383Z,19.33
2022-08-18T03:06:49.383Z,19.23
2022-08-18T03:09:20.093Z,19.19
2022-08-18T03:11:50.189Z,19.23
2022-08-18T03:14:19.942Z,19.26
2022-08-18T03:16:53.652Z,19.30
2022-08-18T03:19:25.450Z,19.27
2022-08-18T03:21:57.229Z,19.22
2022-08-18T03:24:29.974Z,19.21
2022-08-18T03:27:00.168Z,19.23
2022-08-18T03:29:32.795Z,19.24
2022-08-18T03:32:04.914Z,19.26
2022-08-18T03:34:34.692Z,19.25
2022-08-18T03:37:05.223Z,19.28
2022-08-18T03:39:35.014Z,19.31
2022-08-18T03:42:05.192Z,19.33
2022-08-18T03:44:37.065Z,19.29
2022-08-18T03:47:09.749Z,19.30
2022-08-18T03:49:39.724Z,19.37
2022-08-18T03:52:10.767Z,19.39
2022-08-18T03:54:41.035Z,19.43
2022-08-18T03:57:12.195Z,19.44
2022-08-18T03:59:43.048Z,19.45
2022-08-18T04:02:12.928Z,19.47
2022-08-18T04:04:43.230Z,19.47
2022-08-18T04:07:16.554Z,19.50
2022-08-18T04:09:45.187Z,19.52
2022-08-18T04:12:17.156Z,19.47
2022-08-18T04:14:49.787Z,19.50
2022-08-18T04:17:24.520Z,19.50
2022-08-18T04:19:55.136Z,19.53
2022-08-18T04:22:25.971Z,19.57
2022-08-18T04:24:56.302Z,19.56
2022-08-18T04:27:28.462Z,19.58
2022-08-18T04:29:59.470Z,19.61
2022-08-18T04:32:31.479Z,19.66
2022-08-18T04:35:02.810Z,19.73
2022-08-18T04:37:33.224Z,19.81
2022-08-18T04:40:13.958Z,19.89
2022-08-18T04:42:44.417Z,19.96
2022-08-18T04:45:14.178Z,20.00
2022-08-18T04:47:43.702Z,20.02
2022-08-18T04:50:14.590Z,20.06
2022-08-18T04:53:02.512Z,20.13
2022-08-18T04:55:32.320Z,20.17
2022-08-18T04:58:02.101Z,20.23
2022-08-18T05:00:31.990Z,20.32
2022-08-18T05:03:01.511Z,20.41
2022-08-18T05:05:31.030Z,20.51
2022-08-18T05:08:00.801Z,20.61
2022-08-18T05:10:30.493Z,20.70
2022-08-18T05:13:00.713Z,20.81
2022-08-18T05:15:46.917Z,20.91
2022-08-18T05:18:23.853Z,21.04
2022-08-18T05:20:58.420Z,21.15
2022-08-18T05:23:29.686Z,21.24
2022-08-18T05:26:01.093Z,21.37
2022-08-18T05:28:31.241Z,21.51
2022-08-18T05:31:06.662Z,21.66
2022-08-18T05:33:39.711Z,21.83
2022-08-18T05:36:28.810Z,21.96
2022-08-18T05:39:06.903Z,22.06
2022-08-18T05:41:39.671Z,22.09
2022-08-18T05:44:13.996Z,22.15
2022-08-18T05:46:49.083Z,22.18
2022-08-18T05:49:20.293Z,22.30
2022-08-18T05:51:52.977Z,22.41
2022-08-18T05:54:42.895Z,22.60
2022-08-18T05:57:17.620Z,22.60
2022-08-18T05:59:49.182Z,22.71
2022-08-18T06:02:31.116Z,22.84
2022-08-18T06:05:03.671Z,22.87
2022-08-18T06:07:37.801Z,23.04
2022-08-18T06:10:12.113Z,23.19
2022-08-18T06:12:47.215Z,23.28
2022-08-18T06:15:39.687Z,23.32
2022-08-18T06:18:37.886Z,23.48
2022-08-18T06:21:29.819Z,23.54
2022-08-18T06:24:11.620Z,23.63
2022-08-18T06:26:50.946Z,23.60
2022-08-18T06:29:37.541Z,23.62
2022-08-18T06:32:17.433Z,23.73
2022-08-18T06:35:03.691Z,23.98
2022-08-18T06:38:00.697Z,24.06
2022-08-18T06:40:30.969Z,24.11
2022-08-18T06:43:02.255Z,24.14
2022-08-18T06:45:39.890Z,24.09
2022-08-18T06:48:29.251Z,24.19
2022-08-18T06:51:02.080Z,24.47
2022-08-18T06:53:48.254Z,24.59
2022-08-18T06:56:26.989Z,24.63
2022-08-18T06:59:15.800Z,24.82
2022-08-18T07:01:47.243Z,24.81
2022-08-18T07:04:42.022Z,24.95
2022-08-18T07:07:40.226Z,25.04
2022-08-18T07:10:32.240Z,25.17
2022-08-18T07:13:20.823Z,25.24
2022-08-18T07:15:51.321Z,25.35
2022-08-18T07:18:27.101Z,25.35
2022-08-18T07:20:59.322Z,25.32
2022-08-18T07:23:34.292Z,25.28
2022-08-18T07:26:10.012Z,25.23
2022-08-18T07:28:44.066Z,25.12
2022-08-18T07:31:25.125Z,25.33
2022-08-18T07:33:59.951Z,25.50
2022-08-18T07:36:36.026Z,25.63
2022-08-18T07:39:14.863Z,25.65
2022-08-18T07:41:52.779Z,25.78
2022-08-18T07:44:33.603Z,25.68
2022-08-18T07:47:07.691Z,25.48
2022-08-18T07:49:54.493Z,25.36
2022-08-18T07:52:44.327Z,25.59
2022-08-18T07:55:26.821Z,25.60
2022-08-18T07:58:05.338Z,25.51
2022-08-18T08:00:59.944Z,25.51
2022-08-18T08:03:40.772Z,25.52
2022-08-18T08:06:19.820Z,25.83
2022-08-18T08:09:00.612Z,25.97
2022-08-18T08:11:44.591Z,26.08
2022-08-18T08:14:29.424Z,26.08
2022-08-18T08:17:06.858Z,26.26
2022-08-18T08:20:00.546Z,26.36
2022-08-18T08:22:36.013Z,26.38
2022-08-18T08:25:28.653Z,26.21
2022-08-18T08:28:11.994Z,26.08
2022-08-18T08:30:48.572Z,25.98
2022-08-18T08:33:27.283Z,26.30
2022-08-18T08:36:09.927Z,26.35
2022-08-18T08:38:45.531Z,26.63
2022-08-18T08:41:41.041Z,26.66
2022-08-18T08:44:18.390Z,26.88
2022-08-18T08:46:53.015Z,26.59
2022-08-18T08:49:33.910Z,26.91
2022-08-18T08:52:10.497Z,26.83
2022-08-18T08:54:51.203Z,26.48
2022-08-18T08:57:26.700Z,26.63
2022-08-18T09:00:07.731Z,26.83
2022-08-18T09:03:00.685Z,27.05
2022-08-18T09:05:36.275Z,27.33
2022-08-18T09:08:31.666Z,27.29
2022-08-18T09:11:44.598Z,27.46
2022-08-18T09:14:33.532Z,27.56
2022-08-18T09:17:23.462Z,27.71
2022-08-18T09:20:16.744Z,27.27
2022-08-18T09:22:52.021Z,27.27
2022-08-18T09:25:54.278Z,26.95
2022-08-18T09:28:56.191Z,27.06
2022-08-18T09:31:31.633Z,27.35
2022-08-18T09:34:25.561Z,27.50
2022-08-18T09:37:15.685Z,27.74
2022-08-18T09:40:14.073Z,28.01
2022-08-18T09:42:52.703Z,28.01
2022-08-18T09:45:57.607Z,27.71
2022-08-18T09:48:30.583Z,27.55
2022-08-18T09:51:23.346Z,27.58
2022-08-18T09:54:12.925Z,27.52
2022-08-18T09:57:19.539Z,27.77
2022-08-18T10:00:11.554Z,27.32
2022-08-18T10:03:25.731Z,27.24
2022-08-18T10:06:20.658Z,27.50
2022-08-18T10:09:27.104Z,27.81
2022-08-18T10:12:29.714Z,28.08
2022-08-18T10:15:04.098Z,28.29
2022-08-18T10:17:52.893Z,28.11
2022-08-18T10:20:37.301Z,28.16
2022-08-18T10:23:08.013Z,28.24
2022-08-18T10:25:42.211Z,28.06
2022-08-18T10:28:34.084Z,27.92
2022-08-18T10:31:10.014Z,27.87
2022-08-18T10:34:05.554Z,28.03
2022-08-18T10:36:52.211Z,27.96
2022-08-18T10:39:27.738Z,27.82
2022-08-18T10:42:14.861Z,27.91
2022-08-18T10:44:47.365Z,28.32
2022-08-18T10:47:24.971Z,28.16
2022-08-18T10:49:55.669Z,28.18
2022-08-18T10:53:35.342Z,28.41
2022-08-18T10:56:02.524Z,28.52
2022-08-18T10:59:04.577Z,28.00
2022-08-18T11:01:50.282Z,27.82
2022-08-18T11:04:36.672Z,27.90
2022-08-18T11:07:11.062Z,28.40
2022-08-18T11:09:51.016Z,28.49
2022-08-18T11:12:55.854Z,28.80
2022-08-18T11:15:38.276Z,29.02
2022-08-18T11:18:19.903Z,28.96
2022-08-18T11:20:52.060Z,29.07
2022-08-18T11:23:22.207Z,29.16
2022-08-18T11:25:58.702Z,29.06
2022-08-18T11:28:31.823Z,29.02
2022-08-18T11:31:02.580Z,29.11
2022-08-18T11:33:42.177Z,29.02
2022-08-18T11:36:17.194Z,29.18
2022-08-18T11:38:56.433Z,29.34
2022-08-18T11:41:48.186Z,29.31
2022-08-18T11:44:24.639Z,29.15
2022-08-18T11:47:08.971Z,28.99
2022-08-18T11:49:45.852Z,28.99
2022-08-18T11:52:29.544Z,29.11
2022-08-18T11:55:14.755Z,28.65
2022-08-18T11:57:59.187Z,28.89
2022-08-18T12:00:54.821Z,29.13
2022-08-18T12:03:37.773Z,29.18
2022-08-18T12:06:21.925Z,29.18
2022-08-18T12:09:01.990Z,28.84
2022-08-18T12:11:35.370Z,28.80
2022-08-18T12:14:31.832Z,28.83
2022-08-18T12:17:01.453Z,28.88
2022-08-18T12:19:34.640Z,28.91
2022-08-18T12:22:16.032Z,28.62
2022-08-18T12:24:46.723Z,28.56
2022-08-18T12:27:23.231Z,28.50
2022-08-18T12:29:55.441Z,28.59
2022-08-18T12:32:49.152Z,28.65
2022-08-18T12:35:21.813Z,28.68
2022-08-18T12:38:11.088Z,28.56
2022-08-18T12:40:42.646Z,28.63
2022-08-18T12:43:12.632Z,28.74
2022-08-18T12:45:44.433Z,28.73
2022-08-18T12:48:14.287Z,28.66
2022-08-18T12:53:58.037Z,28.84
2022-08-18T12:56:30.037Z,28.86
2022-08-18T12:59:04.332Z,28.98
2022-08-18T13:01:36.013Z,29.12
2022-08-18T13:04:12.433Z,28.94
2022-08-18T13:07:00.305Z,28.99
2022-08-18T13:09:34.658Z,28.65
2022-08-18T13:12:16.371Z,28.58
2022-08-18T13:14:47.413Z,28.87
2022-08-18T13:17:29.754Z,28.74
2022-08-18T13:20:09.076Z,28.89
2022-08-18T13:22:40.632Z,28.77
2022-08-18T13:25:12.922Z,28.60
2022-08-18T13:27:59.008Z,28.78
2022-08-18T13:30:30.252Z,28.97
2022-08-18T13:33:05.770Z,28.85
2022-08-18T13:35:54.813Z,28.97
2022-08-18T13:38:27.625Z,28.93
2022-08-18T13:41:01.000Z,28.76
2022-08-18T13:43:35.738Z,28.57
2022-08-18T13:46:09.061Z,28.66
2022-08-18T13:48:41.427Z,28.81
2022-08-18T13:51:19.867Z,28.85
2022-08-18T13:53:59.045Z,29.02
2022-08-18T13:56:39.922Z,29.00
2022-08-18T13:59:10.042Z,28.87
2022-08-18T14:01:44.349Z,28.99
2022-08-18T14:04:27.774Z,29.11
2022-08-18T14:06:59.951Z,28.97
2022-08-18T14:09:37.068Z,28.99
2022-08-18T14:12:22.750Z,29.04
2022-08-18T14:14:55.045Z,28.80
2022-08-18T14:17:25.993Z,28.77
2022-08-18T14:20:21.833Z,28.76
2022-08-18T14:23:14.231Z,28.85
2022-08-18T14:26:21.342Z,29.01
2022-08-18T14:28:53.882Z,29.05
2022-08-18T14:31:23.983Z,29.02
2022-08-18T14:33:55.516Z,28.87
2022-08-18T14:36:29.791Z,28.76
2022-08-18T14:39:01.108Z,28.54
2022-08-18T14:41:31.821Z,28.67
2022-08-18T14:44:13.646Z,28.87
2022-08-18T14:46:54.118Z,28.92
2022-08-18T14:49:28.506Z,28.96
2022-08-18T14:52:00.524Z,28.85
2022-08-18T14:54:31.474Z,28.82
2022-08-18T14:57:05.269Z,28.89
2022-08-18T14:59:37.968Z,28.93
2022-08-18T15:02:13.117Z,28.95
2022-08-18T15:04:55.927Z,28.77
2022-08-18T15:07:27.818Z,28.97
2022-08-18T15:10:15.075Z,28.92
2022-08-18T15:12:46.717Z,28.73
2022-08-18T15:15:18.043Z,28.71
2022-08-18T15:17:50.364Z,28.78
2022-08-18T15:20:29.486Z,28.91
2022-08-18T15:23:22.658Z,28.86
2022-08-18T15:25:54.978Z,28.80
2022-08-18T15:28:27.523Z,28.79
2022-08-18T15:33:51.393Z,28.55
2022-08-18T15:36:28.959Z,28.57
2022-08-18T15:38:59.564Z,28.70
2022-08-18T15:41:32.548Z,28.75
2022-08-18T15:44:07.426Z,28.61
2022-08-18T15:46:39.234Z,28.66
2022-08-18T15:49:14.877Z,28.63
2022-08-18T15:51:45.662Z,28.63
2022-08-18T15:54:15.526Z,28.59
2022-08-18T15:56:45.305Z,28.44
2022-08-18T15:59:34.099Z,28.30
2022-08-18T16:02:11.893Z,28.26
2022-08-18T16:04:48.012Z,28.20
2022-08-18T16:07:25.082Z,28.12
2022-08-18T16:10:02.682Z,28.06
2022-08-18T16:12:32.411Z,28.02
2022-08-18T16:15:04.515Z,27.98
2022-08-18T16:17:37.564Z,27.88
2022-08-18T16:20:10.670Z,27.82
2022-08-18T16:22:40.663Z,27.73
2022-08-18T16:25:11.313Z,27.71
2022-08-18T16:27:41.647Z,27.74
2022-08-18T16:30:14.127Z,27.67
2022-08-18T16:32:47.059Z,27.63
2022-08-18T16:35:18.368Z,27.50
2022-08-18T16:37:49.298Z,27.47
2022-08-18T16:40:21.067Z,27.37
2022-08-18T16:42:55.417Z,27.31
2022-08-18T16:45:25.148Z,27.21
2022-08-18T16:47:56.720Z,27.13
2022-08-18T16:50:27.086Z,27.12
2022-08-18T16:52:57.869Z,27.03
2022-08-18T16:55:30.669Z,26.96
2022-08-18T16:58:19.840Z,26.88
2022-08-18T17:01:09.369Z,26.81
2022-08-18T17:03:58.680Z,26.75
2022-08-18T17:06:28.841Z,26.67
2022-08-18T17:09:02.773Z,26.62
2022-08-18T17:11:48.120Z,26.56
2022-08-18T17:14:22.436Z,26.46
2022-08-18T17:16:54.612Z,26.36
2022-08-18T17:19:26.499Z,26.31
2022-08-18T17:21:56.513Z,26.25
2022-08-18T17:24:32.176Z,26.18
2022-08-18T17:27:25.790Z,26.09
2022-08-18T17:30:03.262Z,25.93
2022-08-18T17:32:42.218Z,25.78
2022-08-18T17:35:15.497Z,25.63
2022-08-18T17:37:52.062Z,25.57
2022-08-18T17:40:31.273Z,25.53
2022-08-18T17:43:06.162Z,25.47
2022-08-18T17:45:39.042Z,25.42
2022-08-18T17:48:14.000Z,25.39
2022-08-18T17:51:07.003Z,25.41
2022-08-18T17:53:40.422Z,25.33
2022-08-18T17:56:18.631Z,25.28
2022-08-18T17:58:56.186Z,25.25
2022-08-18T18:01:28.899Z,25.23
2022-08-18T18:04:01.729Z,25.19
2022-08-18T18:06:38.420Z,25.12
2022-08-18T18:09:10.467Z,25.11
2022-08-18T18:11:43.629Z,25.03
2022-08-18T18:14:29.791Z,24.99
2022-08-18T18:17:10.869Z,25.02
2022-08-18T18:19:46.633Z,24.98
2022-08-18T18:22:23.703Z,24.93
2022-08-18T18:24:57.113Z,24.83
2022-08-18T18:27:30.292Z,24.87
2022-08-18T18:30:05.741Z,24.92
2022-08-18T18:32:49.163Z,24.82
2022-08-18T18:35:34.041Z,24.81
2022-08-18T18:38:22.991Z,24.85
2022-08-18T18:40:59.762Z,24.89
2022-08-18T18:43:36.633Z,24.87
2022-08-18T18:46:29.942Z,24.85
2022-08-18T18:49:04.652Z,24.83
2022-08-18T18:51:43.775Z,24.75
2022-08-18T18:54:26.848Z,24.78
2022-08-18T18:56:57.745Z,24.80
2022-08-18T18:59:41.305Z,24.80
2022-08-18T19:02:33.543Z,24.83
2022-08-18T19:05:18.485Z,24.79
2022-08-18T19:08:16.874Z,24.75
2022-08-18T19:10:56.193Z,24.72
2022-08-18T19:13:34.919Z,24.67
2022-08-18T19:16:23.490Z,24.66
2022-08-18T19:19:38.306Z,24.62
2022-08-18T19:22:04.549Z,24.58
2022-08-18T19:24:48.233Z,24.61
2022-08-18T19:27:27.797Z,24.61
2022-08-18T19:30:08.452Z,24.57
2022-08-18T19:32:43.897Z,24.55
2022-08-18T19:35:19.592Z,24.53
2022-08-18T19:38:04.452Z,24.52
2022-08-18T19:40:41.937Z,24.42
2022-08-18T19:43:30.124Z,24.40
2022-08-18T19:46:10.618Z,24.41
2022-08-18T19:48:51.021Z,24.37
2022-08-18T19:51:28.903Z,24.41
2022-08-18T19:54:12.832Z,24.39
2022-08-18T19:57:03.177Z,24.34
2022-08-18T19:59:51.162Z,24.33
2022-08-18T20:02:33.524Z,24.31
2022-08-18T20:05:20.773Z,24.32
2022-08-18T20:08:29.923Z,24.29
2022-08-18T20:11:41.249Z,24.26
2022-08-18T20:14:17.088Z,24.26
2022-08-18T20:17:16.743Z,24.26
2022-08-18T20:20:06.196Z,24.26
2022-08-18T20:22:42.003Z,24.22
2022-08-18T20:25:42.941Z,24.20
2022-08-18T20:28:32.664Z,24.14
2022-08-18T20:31:12.123Z,24.14
2022-08-18T20:33:46.531Z,24.11
2022-08-18T20:36:31.685Z,24.07
2022-08-18T20:39:32.821Z,24.03
2022-08-18T20:42:03.534Z,23.99
2022-08-18T20:44:57.503Z,23.98
2022-08-18T20:47:42.654Z,23.94
2022-08-18T20:50:43.001Z,23.90
2022-08-18T20:53:25.614Z,23.85
2022-08-18T20:56:12.890Z,23.85
2022-08-18T20:58:57.368Z,23.76
2022-08-18T21:01:29.613Z,23.74
2022-08-18T21:04:02.507Z,23.73
2022-08-18T21:06:35.012Z,23.68
2022-08-18T21:09:05.259Z,23.63
2022-08-18T21:11:42.542Z,23.62
2022-08-18T21:14:23.273Z,23.57
2022-08-18T21:16:53.379Z,23.47
2022-08-18T21:19:25.481Z,23.48
2022-08-18T21:21:57.851Z,23.46
2022-08-18T21:24:34.526Z,23.44
2022-08-18T21:27:08.160Z,23.47
2022-08-18T21:29:47.550Z,23.49
2022-08-18T21:32:23.981Z,23.42
2022-08-18T21:34:54.122Z,23.42
2022-08-18T21:37:23.980Z,23.37
2022-08-18T21:39:56.211Z,23.35
2022-08-18T21:42:31.299Z,23.32
2022-08-18T21:45:01.449Z,23.29
2022-08-18T21:47:33.474Z,23.21
2022-08-18T21:50:10.231Z,23.18
2022-08-18T21:52:50.562Z,23.13
2022-08-18T21:55:26.507Z,23.08
2022-08-18T21:58:07.404Z,23.01
2022-08-18T22:00:40.111Z,23.01
2022-08-18T22:03:27.024Z,22.97
2022-08-18T22:06:03.118Z,22.92
2022-08-18T22:08:46.534Z,22.92
2022-08-18T22:12:01.014Z,22.85
2022-08-18T22:14:53.877Z,22.83
2022-08-18T22:17:32.562Z,22.79
2022-08-18T22:20:36.382Z,22.72
2022-08-18T22:23:42.460Z,22.66
2022-08-18T22:26:20.024Z,22.64
2022-08-18T22:29:00.574Z,22.61
2022-08-18T22:31:32.523Z,22.53
2022-08-18T22:34:06.865Z,22.52
2022-08-18T22:36:39.823Z,22.48
2022-08-18T22:39:11.055Z,22.48
2022-08-18T22:41:41.900Z,22.36
2022-08-18T22:44:11.624Z,22.37
2022-08-18T22:46:41.522Z,22.33
2022-08-18T22:49:11.011Z,22.36
2022-08-18T22:51:40.851Z,22.32
2022-08-18T22:54:14.415Z,22.36
2022-08-18T22:56:53.949Z,22.36
2022-08-18T22:59:26.859Z,22.32
2022-08-18T23:01:59.382Z,22.29
2022-08-18T23:04:29.180Z,22.32
2022-08-18T23:07:00.108Z,22.26
2022-08-18T23:09:31.870Z,22.26
2022-08-18T23:12:04.651Z,22.21
2022-08-18T23:14:34.892Z,22.17
2022-08-18T23:17:06.802Z,22.19
2022-08-18T23:19:36.484Z,22.21
2022-08-18T23:22:08.530Z,22.22
2022-08-18T23:24:38.491Z,22.21
2022-08-18T23:27:09.070Z,22.19
2022-08-18T23:29:40.891Z,22.22
2022-08-18T23:32:10.711Z,22.23
2022-08-18T23:34:40.812Z,22.23
2022-08-18T23:37:11.021Z,22.21
2022-08-18T23:39:43.472Z,22.24
2022-08-18T23:42:13.751Z,22.24
2022-08-18T23:44:43.372Z,22.26
2022-08-18T23:47:13.191Z,22.24
2022-08-18T23:49:42.772Z,22.19
2022-08-18T23:52:12.407Z,22.16
2022-08-18T23:54:54.170Z,22.09
2022-08-18T23:57:23.702Z,22.00
2022-08-18T23:59:56.310Z,21.88
